createdAt,value
2017-01-22T00:00:12.163Z,57.03
2017-01-22T00:01:12.257Z,56.80
2017-01-22T00:02:12.195Z,56.70
2017-01-22T00:03:13.525Z,56.58
2017-01-22T00:04:13.916Z,56.54
2017-01-22T00:05:13.516Z,56.50
2017-01-22T00:06:13.769Z,56.46
2017-01-22T00:07:10.222Z,56.47
2017-01-22T00:08:12.239Z,56.47
2017-01-22T00:09:13.039Z,56.45
2017-01-22T00:10:11.989Z,56.42
2017-01-22T00:11:12.467Z,56.45
2017-01-22T00:12:13.145Z,56.43
2017-01-22T00:13:12.229Z,56.39
2017-01-22T00:14:12.311Z,56.42
2017-01-22T00:15:12.309Z,56.38
2017-01-22T00:16:12.280Z,56.39
2017-01-22T00:17:13.128Z,56.35
2017-01-22T00:18:11.648Z,56.42
2017-01-22T00:19:13.688Z,56.40
2017-01-22T00:20:13.155Z,56.41
2017-01-22T00:21:12.205Z,56.38
2017-01-22T00:22:12.987Z,56.34
2017-01-22T00:23:12.038Z,56.34
2017-01-22T00:24:12.817Z,56.30
2017-01-22T00:25:14.157Z,56.31
2017-01-22T00:26:12.079Z,56.35
2017-01-22T00:27:12.767Z,56.32
2017-01-22T00:28:12.663Z,56.35
2017-01-22T00:29:13.702Z,56.40
2017-01-22T00:30:12.795Z,56.36
2017-01-22T00:31:12.868Z,56.37
2017-01-22T00:32:13.010Z,56.35
2017-01-22T00:33:13.619Z,56.33
2017-01-22T00:34:13.113Z,56.38
2017-01-22T00:35:12.805Z,56.39
2017-01-22T00:36:13.491Z,56.38
2017-01-22T00:37:14.280Z,56.57
2017-01-22T00:38:12.232Z,56.71
2017-01-22T00:39:12.214Z,56.87
2017-01-22T00:40:12.963Z,57.33
2017-01-22T00:41:12.043Z,57.27
2017-01-22T00:42:12.998Z,57.41
2017-01-22T00:43:12.000Z,57.56
2017-01-22T00:44:12.078Z,57.36
2017-01-22T00:45:14.613Z,57.41
2017-01-22T00:46:13.439Z,57.40
2017-01-22T00:47:13.303Z,57.31
2017-01-22T00:48:12.827Z,57.31
2017-01-22T00:49:14.320Z,57.39
2017-01-22T00:50:09.928Z,57.33
2017-01-22T00:51:13.749Z,57.30
2017-01-22T00:52:13.320Z,57.24
2017-01-22T00:53:14.086Z,57.24
2017-01-22T00:54:12.627Z,57.23
2017-01-22T00:55:14.048Z,57.26
2017-01-22T00:56:12.106Z,57.16
2017-01-22T00:57:13.695Z,57.21
2017-01-22T00:58:12.789Z,57.22
2017-01-22T00:59:13.527Z,57.19
2017-01-22T01:00:14.653Z,57.17
2017-01-22T01:01:14.229Z,57.12
2017-01-22T01:02:13.103Z,57.15
2017-01-22T01:03:11.158Z,57.09
2017-01-22T01:04:12.586Z,57.07
2017-01-22T01:05:14.121Z,57.08
2017-01-22T01:06:12.255Z,56.99
2017-01-22T01:07:12.918Z,57.01
2017-01-22T01:08:13.622Z,56.95
2017-01-22T01:09:13.267Z,57.01
2017-01-22T01:10:14.397Z,57.01
2017-01-22T01:11:13.350Z,56.98
2017-01-22T01:12:13.209Z,56.95
2017-01-22T01:13:12.307Z,56.96
2017-01-22T01:14:13.259Z,56.95
2017-01-22T01:15:14.828Z,56.96
2017-01-22T01:16:12.892Z,56.92
2017-01-22T01:17:13.107Z,56.96
2017-01-22T01:18:13.902Z,57.00
2017-01-22T01:19:15.770Z,56.94
2017-01-22T01:20:14.182Z,57.01
2017-01-22T01:21:13.500Z,56.95
2017-01-22T01:22:14.864Z,57.00
2017-01-22T01:23:16.464Z,57.05
2017-01-22T01:24:12.604Z,56.97
2017-01-22T01:25:13.835Z,56.95
2017-01-22T01:26:15.463Z,56.97
2017-01-22T01:27:12.539Z,56.91
2017-01-22T01:28:13.965Z,56.96
2017-01-22T01:29:13.197Z,56.95
2017-01-22T01:30:15.622Z,56.92
2017-01-22T01:31:12.630Z,57.00
2017-01-22T01:32:13.795Z,56.92
2017-01-22T01:33:13.121Z,57.01
2017-01-22T01:34:14.191Z,56.94
2017-01-22T01:35:13.599Z,56.96
2017-01-22T01:36:13.332Z,56.91
2017-01-22T01:37:15.651Z,56.97
2017-01-22T01:38:14.089Z,56.95
2017-01-22T01:39:15.348Z,56.90
2017-01-22T01:40:14.042Z,56.96
2017-01-22T01:41:13.996Z,56.90
2017-01-22T01:42:12.956Z,56.94
2017-01-22T01:43:13.520Z,56.91
2017-01-22T01:44:14.281Z,56.89
2017-01-22T01:45:12.313Z,56.85
2017-01-22T01:46:14.090Z,56.90
2017-01-22T01:47:13.890Z,56.89
2017-01-22T01:48:14.177Z,56.89
2017-01-22T01:49:13.221Z,56.89
2017-01-22T01:50:12.317Z,56.86
2017-01-22T01:51:12.906Z,56.89
2017-01-22T01:52:13.499Z,56.88
2017-01-22T01:53:14.258Z,56.89
2017-01-22T01:54:14.184Z,56.92
2017-01-22T01:55:13.572Z,56.86
2017-01-22T01:56:13.405Z,55.96
2017-01-22T01:57:13.456Z,55.79
2017-01-22T01:58:13.683Z,56.58
2017-01-22T01:59:15.279Z,56.74
2017-01-22T02:00:13.651Z,56.79
2017-01-22T02:01:14.302Z,56.77
2017-01-22T02:02:12.151Z,56.83
2017-01-22T02:03:12.737Z,56.84
2017-01-22T02:04:13.976Z,56.84
2017-01-22T02:05:12.059Z,56.82
2017-01-22T02:06:13.966Z,56.95
2017-01-22T02:07:12.964Z,57.01
2017-01-22T02:08:12.103Z,56.97
2017-01-22T02:09:12.052Z,56.96
2017-01-22T02:10:12.023Z,56.98
2017-01-22T02:11:13.869Z,56.98
2017-01-22T02:12:16.210Z,56.89
2017-01-22T02:13:12.291Z,56.95
2017-01-22T02:14:13.249Z,56.91
2017-01-22T02:15:13.783Z,56.86
2017-01-22T02:16:14.579Z,56.86
2017-01-22T02:17:12.849Z,56.83
2017-01-22T02:18:14.889Z,56.84
2017-01-22T02:19:14.800Z,56.82
2017-01-22T02:20:13.621Z,56.80
2017-01-22T02:21:14.370Z,56.84
2017-01-22T02:22:13.400Z,56.84
2017-01-22T02:23:15.691Z,56.80
2017-01-22T02:24:13.737Z,56.83
2017-01-22T02:25:13.053Z,56.85
2017-01-22T02:26:12.147Z,56.91
2017-01-22T02:27:13.292Z,56.80
2017-01-22T02:28:12.678Z,56.81
2017-01-22T02:29:14.170Z,56.86
2017-01-22T02:30:13.508Z,56.80
2017-01-22T02:31:14.271Z,56.81
2017-01-22T02:32:13.955Z,56.77
2017-01-22T02:33:12.491Z,56.84
2017-01-22T02:34:12.761Z,56.84
2017-01-22T02:35:13.599Z,56.90
2017-01-22T02:36:12.649Z,56.86
2017-01-22T02:37:12.717Z,56.84
2017-01-22T02:38:13.733Z,56.86
2017-01-22T02:39:14.102Z,56.83
2017-01-22T02:40:12.601Z,56.83
2017-01-22T02:41:13.340Z,56.85
2017-01-22T02:42:13.416Z,56.83
2017-01-22T02:43:10.574Z,56.84
2017-01-22T02:44:15.190Z,56.82
2017-01-22T02:45:13.458Z,56.83
2017-01-22T02:46:14.043Z,56.84
2017-01-22T02:47:12.106Z,56.83
2017-01-22T02:48:13.849Z,56.87
2017-01-22T02:49:14.609Z,56.75
2017-01-22T02:50:11.091Z,55.94
2017-01-22T02:51:15.210Z,55.92
2017-01-22T02:52:12.253Z,56.52
2017-01-22T02:53:12.671Z,56.67
2017-01-22T02:54:12.709Z,56.72
2017-01-22T02:55:14.386Z,56.77
2017-01-22T02:56:12.980Z,56.82
2017-01-22T02:57:11.928Z,56.79
2017-01-22T02:58:13.246Z,56.86
2017-01-22T02:59:13.776Z,56.89
2017-01-22T03:00:14.411Z,56.93
2017-01-22T03:01:13.136Z,56.97
2017-01-22T03:02:14.714Z,56.95
2017-01-22T03:03:14.244Z,56.94
2017-01-22T03:04:13.228Z,56.93
2017-01-22T03:05:13.016Z,56.95
2017-01-22T03:06:11.994Z,56.90
2017-01-22T03:07:12.468Z,56.91
2017-01-22T03:08:13.072Z,56.93
2017-01-22T03:09:12.741Z,56.96
2017-01-22T03:10:12.816Z,56.99
2017-01-22T03:11:14.833Z,56.96
2017-01-22T03:12:13.373Z,56.92
2017-01-22T03:13:14.268Z,56.93
2017-01-22T03:14:13.072Z,57.00
2017-01-22T03:15:12.014Z,56.98
2017-01-22T03:16:12.395Z,56.97
2017-01-22T03:17:12.930Z,56.99
2017-01-22T03:18:12.812Z,56.99
2017-01-22T03:19:13.708Z,57.02
2017-01-22T03:20:12.766Z,57.00
2017-01-22T03:21:13.653Z,56.99
2017-01-22T03:22:12.599Z,56.97
2017-01-22T03:23:14.148Z,57.01
2017-01-22T03:24:12.660Z,57.03
2017-01-22T03:25:14.411Z,57.05
2017-01-22T03:26:15.319Z,57.03
2017-01-22T03:27:12.824Z,57.00
2017-01-22T03:28:13.173Z,56.90
2017-01-22T03:29:12.167Z,56.10
2017-01-22T03:30:12.306Z,55.85
2017-01-22T03:31:12.451Z,55.76
2017-01-22T03:32:13.400Z,55.76
2017-01-22T03:33:13.048Z,55.77
2017-01-22T03:34:13.124Z,55.79
2017-01-22T03:35:13.085Z,55.99
2017-01-22T03:36:12.065Z,56.70
2017-01-22T03:37:10.983Z,56.83
2017-01-22T03:38:12.361Z,56.84
2017-01-22T03:39:13.466Z,56.91
2017-01-22T03:40:13.095Z,56.95
2017-01-22T03:41:12.168Z,56.98
2017-01-22T03:42:14.101Z,56.98
2017-01-22T03:43:14.198Z,57.00
2017-01-22T03:44:12.752Z,56.97
2017-01-22T03:45:12.722Z,56.94
2017-01-22T03:46:11.799Z,57.01
2017-01-22T03:47:14.050Z,57.01
2017-01-22T03:48:11.089Z,56.95
2017-01-22T03:49:11.632Z,56.13
2017-01-22T03:50:14.030Z,55.92
2017-01-22T03:51:13.152Z,55.76
2017-01-22T03:52:11.161Z,55.71
2017-01-22T03:53:12.808Z,55.65
2017-01-22T03:54:14.430Z,55.75
2017-01-22T03:55:12.475Z,56.65
2017-01-22T03:56:15.272Z,56.83
2017-01-22T03:57:12.951Z,56.88
2017-01-22T03:58:13.520Z,56.99
2017-01-22T03:59:15.034Z,56.99
2017-01-22T04:00:11.978Z,56.98
2017-01-22T04:01:13.100Z,57.00
2017-01-22T04:02:13.190Z,57.03
2017-01-22T04:03:13.440Z,57.07
2017-01-22T04:04:12.283Z,57.08
2017-01-22T04:05:13.386Z,57.05
2017-01-22T04:06:13.339Z,57.04
2017-01-22T04:07:13.877Z,57.08
2017-01-22T04:08:13.387Z,57.04
2017-01-22T04:09:12.319Z,57.09
2017-01-22T04:10:14.132Z,57.10
2017-01-22T04:11:12.193Z,57.05
2017-01-22T04:12:13.888Z,57.11
2017-01-22T04:13:13.599Z,57.02
2017-01-22T04:14:12.509Z,57.07
2017-01-22T04:15:14.129Z,57.12
2017-01-22T04:16:13.315Z,57.12
2017-01-22T04:17:11.514Z,57.09
2017-01-22T04:18:13.768Z,57.13
2017-01-22T04:19:12.834Z,57.08
2017-01-22T04:20:13.639Z,57.11
2017-01-22T04:21:13.611Z,57.16
2017-01-22T04:22:12.586Z,57.12
2017-01-22T04:23:14.359Z,57.09
2017-01-22T04:24:12.935Z,57.13
2017-01-22T04:25:13.246Z,57.08
2017-01-22T04:26:13.433Z,57.14
2017-01-22T04:27:12.957Z,57.15
2017-01-22T04:28:14.747Z,57.10
2017-01-22T04:29:13.182Z,57.04
2017-01-22T04:30:12.194Z,56.16
2017-01-22T04:31:12.807Z,56.37
2017-01-22T04:32:13.141Z,56.81
2017-01-22T04:33:12.826Z,56.86
2017-01-22T04:34:14.501Z,56.96
2017-01-22T04:35:15.781Z,57.04
2017-01-22T04:36:13.627Z,57.00
2017-01-22T04:37:13.285Z,56.48
2017-01-22T04:38:13.418Z,56.89
2017-01-22T04:39:14.230Z,56.93
2017-01-22T04:40:12.178Z,56.96
2017-01-22T04:41:12.083Z,57.00
2017-01-22T04:42:13.170Z,56.97
2017-01-22T04:43:13.874Z,56.98
2017-01-22T04:44:12.785Z,57.00
2017-01-22T04:45:12.850Z,57.03
2017-01-22T04:46:11.925Z,56.91
2017-01-22T04:47:13.316Z,56.15
2017-01-22T04:48:13.628Z,55.93
2017-01-22T04:49:13.175Z,55.93
2017-01-22T04:50:12.748Z,56.67
2017-01-22T04:51:15.157Z,56.88
2017-01-22T04:52:12.777Z,56.92
2017-01-22T04:53:13.384Z,56.98
2017-01-22T04:54:12.996Z,57.02
2017-01-22T04:55:12.420Z,57.05
2017-01-22T04:56:12.476Z,57.06
2017-01-22T04:57:12.571Z,57.02
2017-01-22T04:58:14.170Z,57.04
2017-01-22T04:59:12.195Z,57.06
2017-01-22T05:00:12.098Z,57.06
2017-01-22T05:01:12.743Z,57.07
2017-01-22T05:02:12.976Z,57.06
2017-01-22T05:03:12.308Z,57.11
2017-01-22T05:04:12.786Z,57.07
2017-01-22T05:05:12.670Z,57.07
2017-01-22T05:06:13.299Z,57.07
2017-01-22T05:07:12.888Z,57.07
2017-01-22T05:08:11.681Z,57.08
2017-01-22T05:09:13.408Z,57.09
2017-01-22T05:10:11.859Z,57.15
2017-01-22T05:11:13.887Z,57.57
2017-01-22T05:12:13.534Z,57.58
2017-01-22T05:13:14.381Z,57.40
2017-01-22T05:14:12.275Z,57.31
2017-01-22T05:15:12.307Z,57.29
2017-01-22T05:16:12.398Z,57.31
2017-01-22T05:17:14.319Z,57.29
2017-01-22T05:18:12.446Z,57.22
2017-01-22T05:19:10.084Z,57.25
2017-01-22T05:20:12.583Z,57.28
2017-01-22T05:21:14.408Z,57.28
2017-01-22T05:22:13.094Z,57.24
2017-01-22T05:23:13.243Z,57.21
2017-01-22T05:24:12.170Z,57.28
2017-01-22T05:25:17.745Z,57.16
2017-01-22T05:26:13.872Z,56.39
2017-01-22T05:27:13.066Z,56.19
2017-01-22T05:28:14.041Z,56.12
2017-01-22T05:29:12.495Z,56.28
2017-01-22T05:30:12.393Z,56.88
2017-01-22T05:31:12.416Z,57.08
2017-01-22T05:32:13.824Z,57.15
2017-01-22T05:33:13.580Z,57.16
2017-01-22T05:34:12.605Z,57.19
2017-01-22T05:35:12.523Z,57.21
2017-01-22T05:36:12.474Z,57.19
2017-01-22T05:37:12.405Z,57.19
2017-01-22T05:38:13.011Z,57.20
2017-01-22T05:39:12.726Z,57.20
2017-01-22T05:40:13.278Z,57.19
2017-01-22T05:41:14.957Z,57.19
2017-01-22T05:42:11.985Z,57.18
2017-01-22T05:43:12.942Z,57.16
2017-01-22T05:44:12.002Z,57.18
2017-01-22T05:45:12.712Z,57.24
2017-01-22T05:46:11.598Z,57.22
2017-01-22T05:47:11.481Z,57.22
2017-01-22T05:48:13.306Z,57.20
2017-01-22T05:49:12.837Z,57.15
2017-01-22T05:50:13.602Z,57.17
2017-01-22T05:51:13.462Z,57.18
2017-01-22T05:52:12.926Z,57.19
2017-01-22T05:53:12.686Z,57.19
2017-01-22T05:54:13.904Z,57.14
2017-01-22T05:55:13.547Z,57.12
2017-01-22T05:56:12.633Z,57.17
2017-01-22T05:57:13.245Z,57.17
2017-01-22T05:58:13.911Z,57.18
2017-01-22T05:59:13.531Z,57.13
2017-01-22T06:00:12.561Z,57.13
2017-01-22T06:01:18.490Z,57.14
2017-01-22T06:02:12.455Z,57.17
2017-01-22T06:03:13.632Z,57.15
2017-01-22T06:04:13.862Z,57.08
2017-01-22T06:05:13.753Z,57.09
2017-01-22T06:06:12.736Z,57.05
2017-01-22T06:07:13.433Z,57.08
2017-01-22T06:08:11.114Z,57.10
2017-01-22T06:09:12.759Z,56.19
2017-01-22T06:10:12.655Z,56.24
2017-01-22T06:11:14.489Z,56.87
2017-01-22T06:12:13.160Z,56.96
2017-01-22T06:13:13.615Z,57.00
2017-01-22T06:14:13.773Z,57.07
2017-01-22T06:15:12.909Z,57.09
2017-01-22T06:16:12.824Z,57.08
2017-01-22T06:17:13.102Z,57.08
2017-01-22T06:18:12.105Z,57.09
2017-01-22T06:19:13.396Z,57.04
2017-01-22T06:20:12.392Z,56.19
2017-01-22T06:21:12.856Z,55.97
2017-01-22T06:22:12.897Z,56.16
2017-01-22T06:23:12.942Z,56.76
2017-01-22T06:24:12.822Z,56.85
2017-01-22T06:25:16.452Z,56.94
2017-01-22T06:26:13.116Z,56.96
2017-01-22T06:27:12.184Z,56.97
2017-01-22T06:28:14.016Z,56.96
2017-01-22T06:29:12.898Z,56.98
2017-01-22T06:30:12.823Z,57.02
2017-01-22T06:31:15.648Z,57.12
2017-01-22T06:32:13.110Z,57.10
2017-01-22T06:33:12.961Z,57.12
2017-01-22T06:34:12.532Z,57.09
2017-01-22T06:35:12.997Z,57.05
2017-01-22T06:36:13.065Z,57.03
2017-01-22T06:37:13.653Z,57.01
2017-01-22T06:38:15.676Z,57.02
2017-01-22T06:39:13.347Z,57.01
2017-01-22T06:40:12.324Z,57.00
2017-01-22T06:41:12.930Z,57.02
2017-01-22T06:42:12.006Z,57.03
2017-01-22T06:43:14.161Z,57.03
2017-01-22T06:44:13.175Z,57.05
2017-01-22T06:45:13.069Z,57.04
2017-01-22T06:46:12.845Z,57.03
2017-01-22T06:47:13.597Z,57.07
2017-01-22T06:48:13.618Z,57.07
2017-01-22T06:49:13.752Z,57.07
2017-01-22T06:50:12.666Z,57.08
2017-01-22T06:51:13.065Z,57.06
2017-01-22T06:52:13.787Z,57.13
2017-01-22T06:53:13.456Z,57.16
2017-01-22T06:54:13.174Z,57.09
2017-01-22T06:55:13.919Z,57.11
2017-01-22T06:56:12.666Z,57.41
2017-01-22T06:57:14.246Z,56.57
2017-01-22T06:58:14.133Z,56.48
2017-01-22T06:59:12.219Z,56.21
2017-01-22T07:00:12.157Z,56.10
2017-01-22T07:01:12.105Z,55.95
2017-01-22T07:02:11.066Z,55.92
2017-01-22T07:03:11.901Z,56.75
2017-01-22T07:04:13.471Z,56.90
2017-01-22T07:05:13.005Z,56.99
2017-01-22T07:06:13.179Z,57.04
2017-01-22T07:07:13.203Z,57.05
2017-01-22T07:08:13.875Z,57.09
2017-01-22T07:09:12.937Z,57.11
2017-01-22T07:10:11.755Z,57.14
2017-01-22T07:11:14.808Z,57.13
2017-01-22T07:12:13.375Z,57.11
2017-01-22T07:13:13.237Z,57.19
2017-01-22T07:14:12.884Z,57.19
2017-01-22T07:15:12.770Z,57.21
2017-01-22T07:16:12.664Z,57.23
2017-01-22T07:17:12.916Z,57.21
2017-01-22T07:18:13.657Z,57.21
2017-01-22T07:19:13.175Z,57.11
2017-01-22T07:20:12.257Z,56.31
2017-01-22T07:21:13.495Z,56.11
2017-01-22T07:22:12.426Z,56.01
2017-01-22T07:23:14.077Z,56.03
2017-01-22T07:24:14.496Z,55.93
2017-01-22T07:25:13.943Z,55.88
2017-01-22T07:26:11.982Z,55.97
2017-01-22T07:27:12.684Z,55.99
2017-01-22T07:28:16.333Z,55.94
2017-01-22T07:29:12.225Z,55.98
2017-01-22T07:30:12.250Z,56.02
2017-01-22T07:31:12.723Z,55.95
2017-01-22T07:32:12.763Z,55.93
2017-01-22T07:33:12.773Z,55.90
2017-01-22T07:34:12.918Z,55.93
2017-01-22T07:35:12.447Z,55.91
2017-01-22T07:36:12.819Z,56.45
2017-01-22T07:37:14.381Z,57.09
2017-01-22T07:38:12.444Z,57.08
2017-01-22T07:39:12.935Z,57.15
2017-01-22T07:40:11.844Z,57.18
2017-01-22T07:41:12.764Z,57.20
2017-01-22T07:42:13.714Z,57.21
2017-01-22T07:43:14.364Z,57.23
2017-01-22T07:44:12.413Z,57.24
2017-01-22T07:45:12.249Z,57.24
2017-01-22T07:46:12.211Z,57.19
2017-01-22T07:47:12.790Z,57.19
2017-01-22T07:48:13.391Z,57.22
2017-01-22T07:49:12.823Z,57.27
2017-01-22T07:50:12.911Z,57.34
2017-01-22T07:51:13.414Z,57.24
2017-01-22T07:52:13.303Z,57.25
2017-01-22T07:53:11.367Z,57.25
2017-01-22T07:54:13.284Z,57.24
2017-01-22T07:55:12.697Z,57.25
2017-01-22T07:56:11.653Z,57.24
2017-01-22T07:57:12.555Z,57.29
2017-01-22T07:58:14.390Z,57.20
2017-01-22T07:59:14.223Z,57.24
2017-01-22T08:00:12.234Z,57.23
2017-01-22T08:01:12.736Z,57.30
2017-01-22T08:02:13.974Z,57.29
2017-01-22T08:03:12.653Z,57.45
2017-01-22T08:04:12.550Z,57.33
2017-01-22T08:05:12.573Z,57.35
2017-01-22T08:06:13.330Z,57.41
2017-01-22T08:07:12.868Z,57.34
2017-01-22T08:08:13.381Z,57.38
2017-01-22T08:09:12.302Z,57.36
2017-01-22T08:10:12.377Z,57.35
2017-01-22T08:11:13.223Z,57.34
2017-01-22T08:12:12.940Z,57.38
2017-01-22T08:13:13.876Z,57.38
2017-01-22T08:14:13.433Z,57.39
2017-01-22T08:15:13.548Z,57.39
2017-01-22T08:16:12.502Z,57.42
2017-01-22T08:17:13.659Z,57.56
2017-01-22T08:18:12.641Z,57.40
2017-01-22T08:19:12.816Z,57.71
2017-01-22T08:20:13.146Z,57.51
2017-01-22T08:21:12.326Z,57.73
2017-01-22T08:22:12.339Z,57.52
2017-01-22T08:23:11.688Z,57.39
2017-01-22T08:24:12.522Z,57.21
2017-01-22T08:25:12.657Z,57.31
2017-01-22T08:26:13.062Z,57.36
2017-01-22T08:27:12.103Z,57.25
2017-01-22T08:28:13.591Z,57.15
2017-01-22T08:29:12.977Z,57.22
2017-01-22T08:30:12.034Z,57.19
2017-01-22T08:31:13.168Z,57.20
2017-01-22T08:32:13.914Z,57.22
2017-01-22T08:33:13.999Z,57.10
2017-01-22T08:34:13.165Z,57.17
2017-01-22T08:35:12.636Z,57.13
2017-01-22T08:36:13.549Z,57.05
2017-01-22T08:37:13.147Z,56.99
2017-01-22T08:38:12.864Z,56.97
2017-01-22T08:39:12.724Z,57.00
2017-01-22T08:40:13.264Z,57.06
2017-01-22T08:41:13.083Z,57.05
2017-01-22T08:42:12.281Z,56.98
2017-01-22T08:43:14.039Z,57.03
2017-01-22T08:44:12.021Z,57.08
2017-01-22T08:45:11.355Z,57.33
2017-01-22T08:46:13.056Z,57.43
2017-01-22T08:47:12.560Z,57.40
2017-01-22T08:48:12.705Z,57.24
2017-01-22T08:49:13.461Z,57.14
2017-01-22T08:50:12.947Z,57.74
2017-01-22T08:51:12.583Z,57.48
2017-01-22T08:52:12.659Z,57.28
2017-01-22T08:53:11.794Z,56.98
2017-01-22T08:54:13.316Z,56.01
2017-01-22T08:55:12.930Z,55.91
2017-01-22T08:56:12.456Z,55.82
2017-01-22T08:57:12.938Z,55.83
2017-01-22T08:58:14.619Z,55.80
2017-01-22T08:59:13.137Z,56.17
2017-01-22T09:00:19.615Z,55.97
2017-01-22T09:01:12.488Z,56.32
2017-01-22T09:02:13.365Z,56.25
2017-01-22T09:03:12.740Z,56.27
2017-01-22T09:04:13.133Z,56.89
2017-01-22T09:05:13.220Z,57.09
2017-01-22T09:06:12.149Z,57.90
2017-01-22T09:07:11.855Z,57.57
2017-01-22T09:08:13.616Z,57.45
2017-01-22T09:09:13.518Z,57.44
2017-01-22T09:10:12.597Z,57.73
2017-01-22T09:11:13.210Z,57.42
2017-01-22T09:12:13.893Z,57.11
2017-01-22T09:13:14.017Z,57.26
2017-01-22T09:14:12.036Z,56.87
2017-01-22T09:15:12.079Z,57.44
2017-01-22T09:16:12.876Z,57.37
2017-01-22T09:17:13.619Z,57.20
2017-01-22T09:18:14.355Z,56.90
2017-01-22T09:19:12.867Z,56.93
2017-01-22T09:20:14.509Z,56.98
2017-01-22T09:21:10.476Z,56.95
2017-01-22T09:22:13.361Z,56.43
2017-01-22T09:23:12.702Z,56.25
2017-01-22T09:24:12.689Z,54.47
2017-01-22T09:25:12.616Z,55.70
2017-01-22T09:26:15.111Z,55.00
2017-01-22T09:27:12.656Z,56.02
2017-01-22T09:28:13.963Z,56.31
2017-01-22T09:29:14.629Z,56.51
2017-01-22T09:30:13.954Z,56.57
2017-01-22T09:31:11.956Z,55.22
2017-01-22T09:32:12.517Z,55.24
2017-01-22T09:33:12.924Z,55.26
2017-01-22T09:34:11.897Z,55.36
2017-01-22T09:35:13.344Z,54.93
2017-01-22T09:36:12.320Z,54.96
2017-01-22T09:37:14.076Z,54.84
2017-01-22T09:38:12.741Z,54.93
2017-01-22T09:39:12.794Z,54.93
2017-01-22T09:40:12.782Z,54.68
2017-01-22T09:41:13.284Z,54.67
2017-01-22T09:42:12.854Z,54.83
2017-01-22T09:43:14.390Z,54.56
2017-01-22T09:44:13.019Z,54.63
2017-01-22T09:45:12.513Z,54.45
2017-01-22T09:46:13.085Z,54.06
2017-01-22T09:47:10.126Z,54.47
2017-01-22T09:48:12.337Z,54.27
2017-01-22T09:49:13.139Z,54.12
2017-01-22T09:50:13.120Z,54.08
2017-01-22T09:51:15.546Z,53.97
2017-01-22T09:52:13.026Z,53.92
2017-01-22T09:53:13.134Z,51.39
2017-01-22T09:54:12.719Z,50.22
2017-01-22T09:55:14.839Z,51.22
2017-01-22T09:56:13.738Z,49.53
2017-01-22T09:57:15.437Z,51.14
2017-01-22T09:58:13.274Z,51.95
2017-01-22T09:59:12.894Z,52.31
2017-01-22T10:00:12.909Z,52.50
2017-01-22T10:01:13.554Z,52.95
2017-01-22T10:02:13.484Z,53.05
2017-01-22T10:03:11.534Z,53.28
2017-01-22T10:04:12.987Z,53.21
2017-01-22T10:05:12.648Z,53.48
2017-01-22T10:06:13.496Z,53.72
2017-01-22T10:07:13.290Z,53.83
2017-01-22T10:08:12.872Z,54.04
2017-01-22T10:09:12.956Z,54.15
2017-01-22T10:10:12.505Z,54.34
2017-01-22T10:11:13.711Z,54.37
2017-01-22T10:12:12.642Z,54.48
2017-01-22T10:13:14.306Z,54.53
2017-01-22T10:14:12.937Z,54.59
2017-01-22T10:15:12.764Z,54.65
2017-01-22T10:16:13.456Z,54.69
2017-01-22T10:17:12.961Z,54.76
2017-01-22T10:18:11.951Z,54.83
2017-01-22T10:19:12.681Z,54.80
2017-01-22T10:20:12.808Z,54.81
2017-01-22T10:21:12.884Z,54.84
2017-01-22T10:22:11.774Z,54.88
2017-01-22T10:23:14.375Z,54.92
2017-01-22T10:24:12.298Z,54.92
2017-01-22T10:25:12.470Z,54.94
2017-01-22T10:26:13.554Z,54.98
2017-01-22T10:27:13.012Z,54.97
2017-01-22T10:28:13.656Z,55.05
2017-01-22T10:29:13.114Z,55.09
2017-01-22T10:30:12.201Z,55.11
2017-01-22T10:31:12.311Z,55.10
2017-01-22T10:32:12.353Z,55.13
2017-01-22T10:33:13.126Z,55.17
2017-01-22T10:34:13.584Z,55.15
2017-01-22T10:35:12.554Z,55.18
2017-01-22T10:36:12.663Z,55.20
2017-01-22T10:37:12.702Z,55.19
2017-01-22T10:38:12.575Z,55.22
2017-01-22T10:39:13.018Z,55.10
2017-01-22T10:40:11.968Z,55.21
2017-01-22T10:41:12.746Z,55.24
2017-01-22T10:42:13.529Z,55.24
2017-01-22T10:43:14.323Z,55.30
2017-01-22T10:44:13.884Z,55.34
2017-01-22T10:45:13.078Z,55.43
2017-01-22T10:46:12.007Z,55.47
2017-01-22T10:47:12.656Z,55.51
2017-01-22T10:48:14.531Z,55.47
2017-01-22T10:49:13.287Z,55.45
2017-01-22T10:50:12.778Z,55.42
2017-01-22T10:51:12.802Z,55.40
2017-01-22T10:52:19.284Z,55.39
2017-01-22T10:53:13.342Z,55.37
2017-01-22T10:54:13.984Z,55.39
2017-01-22T10:55:13.669Z,55.38
2017-01-22T10:56:12.832Z,55.40
2017-01-22T10:57:11.795Z,55.40
2017-01-22T10:58:13.706Z,54.53
2017-01-22T10:59:12.656Z,54.30
2017-01-22T11:00:12.555Z,54.21
2017-01-22T11:01:14.207Z,54.16
2017-01-22T11:02:12.579Z,54.15
2017-01-22T11:03:12.698Z,54.13
2017-01-22T11:04:13.516Z,54.22
2017-01-22T11:05:12.504Z,54.96
2017-01-22T11:06:13.887Z,55.20
2017-01-22T11:07:12.771Z,55.28
2017-01-22T11:08:13.926Z,55.37
2017-01-22T11:09:13.015Z,55.57
2017-01-22T11:10:12.763Z,55.83
2017-01-22T11:11:13.064Z,55.92
2017-01-22T11:12:12.604Z,55.83
2017-01-22T11:13:14.115Z,55.80
2017-01-22T11:14:13.156Z,55.71
2017-01-22T11:15:11.311Z,55.70
2017-01-22T11:16:12.786Z,54.77
2017-01-22T11:17:11.811Z,54.70
2017-01-22T11:18:13.325Z,55.37
2017-01-22T11:19:13.257Z,55.91
2017-01-22T11:20:12.241Z,56.01
2017-01-22T11:21:09.912Z,55.95
2017-01-22T11:22:13.298Z,56.06
2017-01-22T11:23:12.274Z,56.07
2017-01-22T11:24:12.492Z,56.06
2017-01-22T11:25:13.135Z,56.07
2017-01-22T11:26:12.709Z,56.11
2017-01-22T11:27:13.444Z,56.06
2017-01-22T11:28:14.089Z,56.08
2017-01-22T11:29:12.181Z,56.07
2017-01-22T11:30:12.089Z,56.06
2017-01-22T11:31:12.017Z,56.04
2017-01-22T11:32:13.660Z,56.00
2017-01-22T11:33:12.586Z,55.99
2017-01-22T11:34:14.378Z,56.00
2017-01-22T11:35:13.145Z,56.05
2017-01-22T11:36:12.600Z,56.07
2017-01-22T11:37:11.434Z,56.08
2017-01-22T11:38:13.018Z,56.05
2017-01-22T11:39:12.620Z,56.14
2017-01-22T11:40:12.588Z,56.02
2017-01-22T11:41:13.243Z,55.20
2017-01-22T11:42:13.955Z,54.99
2017-01-22T11:43:13.697Z,55.22
2017-01-22T11:44:12.741Z,54.97
2017-01-22T11:45:12.728Z,54.87
2017-01-22T11:46:13.585Z,54.78
2017-01-22T11:47:12.505Z,54.68
2017-01-22T11:48:13.414Z,54.66
2017-01-22T11:49:12.914Z,54.68
2017-01-22T11:50:13.078Z,54.61
2017-01-22T11:51:12.586Z,54.59
2017-01-22T11:52:13.176Z,54.63
2017-01-22T11:53:12.168Z,54.56
2017-01-22T11:54:12.820Z,54.55
2017-01-22T11:55:12.728Z,54.46
2017-01-22T11:56:13.686Z,54.47
2017-01-22T11:57:13.214Z,54.39
2017-01-22T11:58:12.532Z,54.33
2017-01-22T11:59:13.049Z,54.42
2017-01-22T12:00:12.802Z,55.09
2017-01-22T12:01:12.917Z,55.21
2017-01-22T12:02:13.579Z,55.29
2017-01-22T12:03:12.490Z,55.30
2017-01-22T12:04:13.045Z,55.31
2017-01-22T12:05:12.586Z,55.23
2017-01-22T12:06:12.570Z,55.20
2017-01-22T12:07:14.304Z,55.16
2017-01-22T12:08:11.528Z,55.04
2017-01-22T12:09:12.936Z,54.22
2017-01-22T12:10:11.974Z,53.97
2017-01-22T12:11:11.923Z,53.89
2017-01-22T12:12:13.778Z,53.80
2017-01-22T12:13:13.559Z,53.78
2017-01-22T12:14:14.206Z,53.65
2017-01-22T12:15:12.793Z,53.67
2017-01-22T12:16:12.783Z,53.62
2017-01-22T12:17:12.887Z,53.58
2017-01-22T12:18:13.611Z,53.62
2017-01-22T12:19:11.605Z,53.68
2017-01-22T12:20:13.972Z,54.42
2017-01-22T12:21:11.977Z,54.66
2017-01-22T12:22:13.617Z,54.86
2017-01-22T12:23:12.471Z,55.06
2017-01-22T12:24:13.145Z,55.00
2017-01-22T12:25:12.062Z,54.29
2017-01-22T12:26:12.598Z,54.11
2017-01-22T12:27:11.450Z,54.08
2017-01-22T12:28:13.559Z,54.90
2017-01-22T12:29:13.262Z,55.10
2017-01-22T12:30:12.955Z,55.19
2017-01-22T12:31:11.896Z,55.22
2017-01-22T12:32:14.453Z,55.27
2017-01-22T12:33:14.204Z,55.30
2017-01-22T12:34:13.184Z,55.32
2017-01-22T12:35:12.703Z,55.34
2017-01-22T12:36:12.827Z,55.35
2017-01-22T12:37:13.687Z,55.36
2017-01-22T12:38:12.692Z,55.41
2017-01-22T12:39:14.110Z,55.45
2017-01-22T12:40:12.214Z,55.40
2017-01-22T12:41:13.791Z,55.45
2017-01-22T12:42:13.760Z,55.56
2017-01-22T12:43:14.891Z,55.59
2017-01-22T12:44:11.656Z,55.53
2017-01-22T12:45:12.842Z,55.50
2017-01-22T12:46:13.545Z,55.47
2017-01-22T12:47:12.470Z,55.44
2017-01-22T12:48:11.220Z,55.48
2017-01-22T12:49:12.181Z,54.50
2017-01-22T12:50:11.251Z,54.43
2017-01-22T12:51:12.225Z,55.09
2017-01-22T12:52:12.247Z,55.24